sensor_id;sensor_type;location;lat;lon;timestamp;temperature;humidity
52030;DHT22;38043;53.224;6.580;2022-10-16T00:00:44;12.30;99.90
52030;DHT22;38043;53.224;6.580;2022-10-16T00:03:10;12.40;99.90
52030;DHT22;38043;53.224;6.580;2022-10-16T00:05:42;12.30;99.90
52030;DHT22;38043;53.224;6.580;2022-10-16T00:08:09;12.30;99.90
52030;DHT22;38043;53.224;6.580;2022-10-16T00:10:35;12.20;99.90
52030;DHT22;38043;53.224;6.580;2022-10-16T00:13:00;12.20;99.90
52030;DHT22;38043;53.224;6.580;2022-10-16T00:15:26;12.20;99.90
52030;DHT22;38043;53.224;6.580;2022-10-16T00:17:52;12.20;99.90
52030;DHT22;38043;53.224;6.580;2022-10-16T00:20:17;12.20;99.90
52030;DHT22;38043;53.224;6.580;2022-10-16T00:22:43;12.20;99.90
52030;DHT22;38043;53.224;6.580;2022-10-16T00:25:09;12.10;99.90
52030;DHT22;38043;53.224;6.580;2022-10-16T00:27:35;12.10;99.90
52030;DHT22;38043;53.224;6.580;2022-10-16T00:30:00;12.10;99.90
52030;DHT22;38043;53.224;6.580;2022-10-16T00:32:26;12.10;99.90
52030;DHT22;38043;53.224;6.580;2022-10-16T00:34:52;12.20;99.90
52030;DHT22;38043;53.224;6.580;2022-10-16T00:37:20;12.20;99.90
52030;DHT22;38043;53.224;6.580;2022-10-16T00:39:46;12.20;99.90
52030;DHT22;38043;53.224;6.580;2022-10-16T00:42:17;12.10;99.90
52030;DHT22;38043;53.224;6.580;2022-10-16T00:47:13;12.10;99.90
52030;DHT22;38043;53.224;6.580;2022-10-16T00:49:41;12.10;99.90
52030;DHT22;38043;53.224;6.580;2022-10-16T00:52:06;12.20;99.90
52030;DHT22;38043;53.224;6.580;2022-10-16T00:54:33;12.10;99.90
52030;DHT22;38043;53.224;6.580;2022-10-16T00:57:05;12.20;99.90
52030;DHT22;38043;53.224;6.580;2022-10-16T00:59:34;12.20;99.90
52030;DHT22;38043;53.224;6.580;2022-10-16T01:02:02;12.10;99.90
52030;DHT22;38043;53.224;6.580;2022-10-16T01:04:34;12.10;99.90
52030;DHT22;38043;53.224;6.580;2022-10-16T01:15:52;12.10;99.90
52030;DHT22;38043;53.224;6.580;2022-10-16T01:28:42;12.20;99.90
52030;DHT22;38043;53.224;6.580;2022-10-16T01:31:11;12.20;99.90
52030;DHT22;38043;53.224;6.580;2022-10-16T01:33:43;12.20;99.90
52030;DHT22;38043;53.224;6.580;2022-10-16T12:23:58;17.70;99.90
52030;DHT22;38043;53.224;6.580;2022-10-16T12:26:38;17.70;99.90
52030;DHT22;38043;53.224;6.580;2022-10-16T12:29:23;17.70;99.90
52030;DHT22;38043;53.224;6.580;2022-10-16T12:31:50;17.60;99.90
52030;DHT22;38043;53.224;6.580;2022-10-16T12:37:13;17.40;99.90
52030;DHT22;38043;53.224;6.580;2022-10-16T12:39:40;17.40;99.90
52030;DHT22;38043;53.224;6.580;2022-10-16T12:44:45;17.30;99.90
52030;DHT22;38043;53.224;6.580;2022-10-16T12:47:24;17.30;99.90
52030;DHT22;38043;53.224;6.580;2022-10-16T12:50:00;17.20;99.90
52030;DHT22;38043;53.224;6.580;2022-10-16T12:52:36;17.10;99.90
52030;DHT22;38043;53.224;6.580;2022-10-16T12:55:03;17.20;99.90
52030;DHT22;38043;53.224;6.580;2022-10-16T12:57:43;17.20;99.90
52030;DHT22;38043;53.224;6.580;2022-10-16T13:03:50;17.20;99.90
52030;DHT22;38043;53.224;6.580;2022-10-16T13:06:33;17.10;99.90
52030;DHT22;38043;53.224;6.580;2022-10-16T13:09:27;17.00;99.90
52030;DHT22;38043;53.224;6.580;2022-10-16T13:15:01;17.00;99.90
52030;DHT22;38043;53.224;6.580;2022-10-16T13:21:10;16.90;99.90
52030;DHT22;38043;53.224;6.580;2022-10-16T13:28:35;16.70;99.90
52030;DHT22;38043;53.224;6.580;2022-10-16T13:31:03;16.70;99.90
52030;DHT22;38043;53.224;6.580;2022-10-16T13:33:37;16.70;99.90
52030;DHT22;38043;53.224;6.580;2022-10-16T13:36:05;16.70;99.90
52030;DHT22;38043;53.224;6.580;2022-10-16T13:38:34;16.60;99.90
52030;DHT22;38043;53.224;6.580;2022-10-16T13:41:05;16.70;99.90
52030;DHT22;38043;53.224;6.580;2022-10-16T13:43:35;16.50;99.90
52030;DHT22;38043;53.224;6.580;2022-10-16T13:46:07;16.50;99.90
52030;DHT22;38043;53.224;6.580;2022-10-16T13:48:33;16.40;99.90
52030;DHT22;38043;53.224;6.580;2022-10-16T13:51:16;16.50;99.90
52030;DHT22;38043;53.224;6.580;2022-10-16T13:53:43;16.40;99.90
52030;DHT22;38043;53.224;6.580;2022-10-16T13:56:18;16.50;99.90
52030;DHT22;38043;53.224;6.580;2022-10-16T13:58:44;16.50;99.90
52030;DHT22;38043;53.224;6.580;2022-10-16T14:01:23;16.50;99.90
52030;DHT22;38043;53.224;6.580;2022-10-16T14:03:51;16.50;99.90
52030;DHT22;38043;53.224;6.580;2022-10-16T14:06:19;16.50;99.90
52030;DHT22;38043;53.224;6.580;2022-10-16T14:08:58;16.40;99.90
52030;DHT22;38043;53.224;6.580;2022-10-16T14:11:25;16.40;99.90
52030;DHT22;38043;53.224;6.580;2022-10-16T14:13:51;16.50;99.90
52030;DHT22;38043;53.224;6.580;2022-10-16T14:16:22;16.40;99.90
52030;DHT22;38043;53.224;6.580;2022-10-16T14:19:01;16.40;99.90
52030;DHT22;38043;53.224;6.580;2022-10-16T14:21:27;16.40;99.90
52030;DHT22;38043;53.224;6.580;2022-10-16T14:23:54;16.40;99.90
52030;DHT22;38043;53.224;6.580;2022-10-16T14:26:23;16.30;99.90
52030;DHT22;38043;53.224;6.580;2022-10-16T14:29:11;16.30;99.90
52030;DHT22;38043;53.224;6.580;2022-10-16T14:31:37;16.30;99.90
52030;DHT22;38043;53.224;6.580;2022-10-16T14:34:22;16.20;99.90
52030;DHT22;38043;53.224;6.580;2022-10-16T14:36:48;16.20;99.90
52030;DHT22;38043;53.224;6.580;2022-10-16T14:39:19;16.20;99.90
52030;DHT22;38043;53.224;6.580;2022-10-16T14:41:48;16.10;99.90
52030;DHT22;38043;53.224;6.580;2022-10-16T14:44:16;16.10;99.90
52030;DHT22;38043;53.224;6.580;2022-10-16T14:46:43;16.10;99.90
52030;DHT22;38043;53.224;6.580;2022-10-16T14:51:39;15.90;99.90
52030;DHT22;38043;53.224;6.580;2022-10-16T14:54:11;15.90;99.90
52030;DHT22;38043;53.224;6.580;2022-10-16T14:56:53;15.90;99.90
52030;DHT22;38043;53.224;6.580;2022-10-16T14:59:27;15.80;99.90
52030;DHT22;38043;53.224;6.580;2022-10-16T15:01:54;15.70;99.90
52030;DHT22;38043;53.224;6.580;2022-10-16T15:04:20;15.70;99.90
52030;DHT22;38043;53.224;6.580;2022-10-16T15:06:46;15.70;99.90
52030;DHT22;38043;53.224;6.580;2022-10-16T15:09:11;15.70;99.90
52030;DHT22;38043;53.224;6.580;2022-10-16T15:11:37;16.00;99.90
52030;DHT22;38043;53.224;6.580;2022-10-16T15:14:04;15.70;99.90
52030;DHT22;38043;53.224;6.580;2022-10-16T15:16:30;15.70;99.90
52030;DHT22;38043;53.224;6.580;2022-10-16T15:18:56;15.60;99.90
52030;DHT22;38043;53.224;6.580;2022-10-16T15:21:25;15.60;99.90
52030;DHT22;38043;53.224;6.580;2022-10-16T15:23:52;15.60;99.90
52030;DHT22;38043;53.224;6.580;2022-10-16T15:26:18;15.60;99.90
52030;DHT22;38043;53.224;6.580;2022-10-16T15:28:44;15.60;99.90
52030;DHT22;38043;53.224;6.580;2022-10-16T15:31:09;15.60;99.90
52030;DHT22;38043;53.224;6.580;2022-10-16T15:33:35;15.50;99.90
52030;DHT22;38043;53.224;6.580;2022-10-16T15:36:02;15.40;99.90
52030;DHT22;38043;53.224;6.580;2022-10-16T15:38:30;15.40;99.90
52030;DHT22;38043;53.224;6.580;2022-10-16T15:40:56;15.40;99.90
52030;DHT22;38043;53.224;6.580;2022-10-16T15:43:22;15.30;99.90
52030;DHT22;38043;53.224;6.580;2022-10-16T15:48:25;15.30;99.90
52030;DHT22;38043;53.224;6.580;2022-10-16T15:50:51;15.50;99.90
52030;DHT22;38043;53.224;6.580;2022-10-16T15:53:16;15.20;99.90
52030;DHT22;38043;53.224;6.580;2022-10-16T15:55:42;15.20;99.90
52030;DHT22;38043;53.224;6.580;2022-10-16T15:58:08;15.10;99.90
52030;DHT22;38043;53.224;6.580;2022-10-16T16:00:33;15.10;99.90
52030;DHT22;38043;53.224;6.580;2022-10-16T16:02:59;15.00;99.90
52030;DHT22;38043;53.224;6.580;2022-10-16T16:05:25;15.20;99.90
52030;DHT22;38043;53.224;6.580;2022-10-16T16:07:50;14.90;99.90
52030;DHT22;38043;53.224;6.580;2022-10-16T16:10:17;15.00;99.90
52030;DHT22;38043;53.224;6.580;2022-10-16T16:12:45;14.80;99.90
52030;DHT22;38043;53.224;6.580;2022-10-16T16:15:14;14.70;99.90
52030;DHT22;38043;53.224;6.580;2022-10-16T16:17:40;14.70;99.90
52030;DHT22;38043;53.224;6.580;2022-10-16T16:20:06;14.60;99.90
52030;DHT22;38043;53.224;6.580;2022-10-16T16:22:32;14.50;99.90
52030;DHT22;38043;53.224;6.580;2022-10-16T16:24:58;14.50;99.90
52030;DHT22;38043;53.224;6.580;2022-10-16T16:27:24;14.40;99.90
52030;DHT22;38043;53.224;6.580;2022-10-16T16:29:55;14.30;99.90
52030;DHT22;38043;53.224;6.580;2022-10-16T16:32:21;14.20;99.90
52030;DHT22;38043;53.224;6.580;2022-10-16T16:34:47;14.80;99.90
52030;DHT22;38043;53.224;6.580;2022-10-16T16:37:13;14.10;99.90
52030;DHT22;38043;53.224;6.580;2022-10-16T16:39:38;14.00;99.90
52030;DHT22;38043;53.224;6.580;2022-10-16T16:42:04;14.00;99.90
52030;DHT22;38043;53.224;6.580;2022-10-16T16:44:32;13.90;99.90
52030;DHT22;38043;53.224;6.580;2022-10-16T16:46:57;13.90;99.90
52030;DHT22;38043;53.224;6.580;2022-10-16T16:49:23;13.90;99.90
52030;DHT22;38043;53.224;6.580;2022-10-16T16:51:49;13.80;99.90
52030;DHT22;38043;53.224;6.580;2022-10-16T16:54:15;13.70;99.90
52030;DHT22;38043;53.224;6.580;2022-10-16T16:56:43;13.70;99.90
52030;DHT22;38043;53.224;6.580;2022-10-16T16:59:13;13.60;99.90
52030;DHT22;38043;53.224;6.580;2022-10-16T17:01:40;13.60;99.90
52030;DHT22;38043;53.224;6.580;2022-10-16T17:04:06;13.50;99.90
52030;DHT22;38043;53.224;6.580;2022-10-16T17:06:33;13.50;99.90
52030;DHT22;38043;53.224;6.580;2022-10-16T17:09:02;13.40;99.90
52030;DHT22;38043;53.224;6.580;2022-10-16T17:11:28;13.40;99.90
52030;DHT22;38043;53.224;6.580;2022-10-16T17:13:56;13.30;99.90
52030;DHT22;38043;53.224;6.580;2022-10-16T17:16:31;13.20;99.90
52030;DHT22;38043;53.224;6.580;2022-10-16T17:19:07;13.20;99.90
52030;DHT22;38043;53.224;6.580;2022-10-16T17:21:34;13.20;99.90
52030;DHT22;38043;53.224;6.580;2022-10-16T17:24:10;13.20;99.90
52030;DHT22;38043;53.224;6.580;2022-10-16T17:26:37;13.10;99.90
52030;DHT22;38043;53.224;6.580;2022-10-16T17:29:04;13.30;99.90
52030;DHT22;38043;53.224;6.580;2022-10-16T17:31:32;13.00;99.90
52030;DHT22;38043;53.224;6.580;2022-10-16T17:34:00;13.10;99.90
52030;DHT22;38043;53.224;6.580;2022-10-16T17:36:26;13.10;99.90
52030;DHT22;38043;53.224;6.580;2022-10-16T17:39:09;13.10;99.90
52030;DHT22;38043;53.224;6.580;2022-10-16T17:41:59;13.00;99.90
52030;DHT22;38043;53.224;6.580;2022-10-16T17:44:31;14.10;99.90
52030;DHT22;38043;53.224;6.580;2022-10-16T17:46:58;12.90;99.90
52030;DHT22;38043;53.224;6.580;2022-10-16T17:49:24;13.00;99.90
52030;DHT22;38043;53.224;6.580;2022-10-16T17:51:52;12.90;99.90
52030;DHT22;38043;53.224;6.580;2022-10-16T17:54:18;13.70;99.90
52030;DHT22;38043;53.224;6.580;2022-10-16T17:56:46;12.80;99.90
52030;DHT22;38043;53.224;6.580;2022-10-16T17:59:13;13.60;99.90
52030;DHT22;38043;53.224;6.580;2022-10-16T18:01:39;12.80;99.90
52030;DHT22;38043;53.224;6.580;2022-10-16T18:04:15;12.60;99.90
52030;DHT22;38043;53.224;6.580;2022-10-16T18:06:44;12.70;99.90
52030;DHT22;38043;53.224;6.580;2022-10-16T18:09:11;12.60;99.90
52030;DHT22;38043;53.224;6.580;2022-10-16T18:11:47;12.60;99.90
52030;DHT22;38043;53.224;6.580;2022-10-16T18:14:15;12.60;99.90
52030;DHT22;38043;53.224;6.580;2022-10-16T18:16:41;12.80;99.90
52030;DHT22;38043;53.224;6.580;2022-10-16T18:19:09;13.00;99.90
52030;DHT22;38043;53.224;6.580;2022-10-16T18:21:35;12.50;99.90
52030;DHT22;38043;53.224;6.580;2022-10-16T18:24:01;13.40;99.90
52030;DHT22;38043;53.224;6.580;2022-10-16T18:26:27;12.50;99.90
52030;DHT22;38043;53.224;6.580;2022-10-16T18:28:54;12.40;99.90
52030;DHT22;38043;53.224;6.580;2022-10-16T18:31:24;11.80;99.90
52030;DHT22;38043;53.224;6.580;2022-10-16T18:33:53;12.40;99.90
52030;DHT22;38043;53.224;6.580;2022-10-16T18:36:25;12.80;99.90
52030;DHT22;38043;53.224;6.580;2022-10-16T18:38:54;12.40;99.90
52030;DHT22;38043;53.224;6.580;2022-10-16T18:41:21;12.40;99.90
52030;DHT22;38043;53.224;6.580;2022-10-16T18:43:47;12.40;99.90
52030;DHT22;38043;53.224;6.580;2022-10-16T18:46:17;12.30;99.90
52030;DHT22;38043;53.224;6.580;2022-10-16T18:48:46;12.40;99.90
52030;DHT22;38043;53.224;6.580;2022-10-16T18:51:24;12.30;99.90
52030;DHT22;38043;53.224;6.580;2022-10-16T18:53:53;12.30;99.90
52030;DHT22;38043;53.224;6.580;2022-10-16T18:56:21;12.90;99.90
52030;DHT22;38043;53.224;6.580;2022-10-16T18:58:55;12.20;99.90
52030;DHT22;38043;53.224;6.580;2022-10-16T19:01:25;12.30;99.90
52030;DHT22;38043;53.224;6.580;2022-10-16T19:04:02;12.20;99.90
52030;DHT22;38043;53.224;6.580;2022-10-16T19:06:31;12.20;99.90
52030;DHT22;38043;53.224;6.580;2022-10-16T19:08:57;12.20;99.90
52030;DHT22;38043;53.224;6.580;2022-10-16T19:11:26;12.20;99.90
52030;DHT22;38043;53.224;6.580;2022-10-16T19:13:53;12.20;99.90
52030;DHT22;38043;53.224;6.580;2022-10-16T19:16:23;12.10;99.90
52030;DHT22;38043;53.224;6.580;2022-10-16T19:18:52;12.20;99.90
52030;DHT22;38043;53.224;6.580;2022-10-16T19:21:23;12.40;99.90
52030;DHT22;38043;53.224;6.580;2022-10-16T19:23:56;12.20;99.90
52030;DHT22;38043;53.224;6.580;2022-10-16T19:26:24;12.20;99.90
52030;DHT22;38043;53.224;6.580;2022-10-16T19:28:51;12.70;99.90
52030;DHT22;38043;53.224;6.580;2022-10-16T19:31:21;12.10;99.90
52030;DHT22;38043;53.224;6.580;2022-10-16T19:33:51;12.10;99.90
52030;DHT22;38043;53.224;6.580;2022-10-16T19:36:24;12.10;99.90
52030;DHT22;38043;53.224;6.580;2022-10-16T19:39:00;12.10;99.90
52030;DHT22;38043;53.224;6.580;2022-10-16T19:41:28;12.10;99.90
52030;DHT22;38043;53.224;6.580;2022-10-16T19:44:00;12.90;99.90
52030;DHT22;38043;53.224;6.580;2022-10-16T19:46:25;13.10;99.90
52030;DHT22;38043;53.224;6.580;2022-10-16T19:48:56;13.20;99.90
52030;DHT22;38043;53.224;6.580;2022-10-16T19:51:24;12.70;99.90
52030;DHT22;38043;53.224;6.580;2022-10-16T19:53:58;12.10;99.90
52030;DHT22;38043;53.224;6.580;2022-10-16T19:56:25;13.10;99.90
52030;DHT22;38043;53.224;6.580;2022-10-16T19:58:54;12.20;99.90
52030;DHT22;38043;53.224;6.580;2022-10-16T20:01:20;12.10;99.90
52030;DHT22;38043;53.224;6.580;2022-10-16T20:03:51;12.40;99.90
52030;DHT22;38043;53.224;6.580;2022-10-16T20:06:27;12.20;99.90
52030;DHT22;38043;53.224;6.580;2022-10-16T20:08:56;11.70;99.90
52030;DHT22;38043;53.224;6.580;2022-10-16T20:11:35;12.20;99.90
52030;DHT22;38043;53.224;6.580;2022-10-16T20:14:04;12.20;99.90
52030;DHT22;38043;53.224;6.580;2022-10-16T20:16:30;12.20;99.90
52030;DHT22;38043;53.224;6.580;2022-10-16T20:18:58;12.20;99.90
52030;DHT22;38043;53.224;6.580;2022-10-16T20:21:31;12.20;99.90
52030;DHT22;38043;53.224;6.580;2022-10-16T20:45:20;12.20;99.90
52030;DHT22;38043;53.224;6.580;2022-10-16T20:47:46;13.30;99.90
52030;DHT22;38043;53.224;6.580;2022-10-16T20:50:11;12.20;99.90
52030;DHT22;38043;53.224;6.580;2022-10-16T20:52:39;12.20;99.90
52030;DHT22;38043;53.224;6.580;2022-10-16T20:55:05;12.20;99.90
52030;DHT22;38043;53.224;6.580;2022-10-16T20:57:31;12.20;99.90
52030;DHT22;38043;53.224;6.580;2022-10-16T20:59:56;12.20;99.90
52030;DHT22;38043;53.224;6.580;2022-10-16T21:02:23;12.20;99.90
52030;DHT22;38043;53.224;6.580;2022-10-16T21:04:49;12.20;99.90
52030;DHT22;38043;53.224;6.580;2022-10-16T21:07:15;12.30;99.90
52030;DHT22;38043;53.224;6.580;2022-10-16T21:09:42;12.30;99.90
52030;DHT22;38043;53.224;6.580;2022-10-16T21:12:08;12.60;99.90
52030;DHT22;38043;53.224;6.580;2022-10-16T21:14:34;12.30;99.90
52030;DHT22;38043;53.224;6.580;2022-10-16T21:17:03;12.20;99.90
52030;DHT22;38043;53.224;6.580;2022-10-16T21:19:29;12.20;99.90
52030;DHT22;38043;53.224;6.580;2022-10-16T21:21:58;12.20;99.90
52030;DHT22;38043;53.224;6.580;2022-10-16T21:24:24;12.20;99.90
52030;DHT22;38043;53.224;6.580;2022-10-16T21:26:49;12.20;99.90
52030;DHT22;38043;53.224;6.580;2022-10-16T21:29:15;12.20;99.90
52030;DHT22;38043;53.224;6.580;2022-10-16T21:31:41;12.20;99.90
52030;DHT22;38043;53.224;6.580;2022-10-16T21:34:07;12.20;99.90
52030;DHT22;38043;53.224;6.580;2022-10-16T21:36:35;12.40;99.90
52030;DHT22;38043;53.224;6.580;2022-10-16T21:39:07;12.20;99.90
52030;DHT22;38043;53.224;6.580;2022-10-16T21:41:33;12.20;99.90
52030;DHT22;38043;53.224;6.580;2022-10-16T21:44:00;12.20;99.90
52030;DHT22;38043;53.224;6.580;2022-10-16T21:46:30;12.20;99.90
52030;DHT22;38043;53.224;6.580;2022-10-16T21:48:59;12.20;99.90
52030;DHT22;38043;53.224;6.580;2022-10-16T21:51:27;12.20;99.90
52030;DHT22;38043;53.224;6.580;2022-10-16T21:53:53;12.20;99.90
52030;DHT22;38043;53.224;6.580;2022-10-16T21:56:19;12.30;99.90
52030;DHT22;38043;53.224;6.580;2022-10-16T21:58:47;12.20;99.90
52030;DHT22;38043;53.224;6.580;2022-10-16T22:01:18;12.20;99.90
52030;DHT22;38043;53.224;6.580;2022-10-16T22:03:45;12.20;99.90
52030;DHT22;38043;53.224;6.580;2022-10-16T22:06:12;12.20;99.90
52030;DHT22;38043;53.224;6.580;2022-10-16T22:08:41;12.20;99.90
52030;DHT22;38043;53.224;6.580;2022-10-16T22:11:12;12.20;99.90
52030;DHT22;38043;53.224;6.580;2022-10-16T22:13:39;12.20;99.90
52030;DHT22;38043;53.224;6.580;2022-10-16T22:16:05;12.20;99.90
52030;DHT22;38043;53.224;6.580;2022-10-16T22:18:32;12.30;99.90
52030;DHT22;38043;53.224;6.580;2022-10-16T22:20:58;12.30;99.90
52030;DHT22;38043;53.224;6.580;2022-10-16T22:23:24;12.20;99.90
52030;DHT22;38043;53.224;6.580;2022-10-16T22:25:50;12.20;99.90
52030;DHT22;38043;53.224;6.580;2022-10-16T22:28:16;12.30;99.90
52030;DHT22;38043;53.224;6.580;2022-10-16T22:30:45;12.20;99.90
52030;DHT22;38043;53.224;6.580;2022-10-16T22:33:11;12.20;99.90
52030;DHT22;38043;53.224;6.580;2022-10-16T22:35:38;12.20;99.90
52030;DHT22;38043;53.224;6.580;2022-10-16T22:38:04;12.20;99.90
52030;DHT22;38043;53.224;6.580;2022-10-16T22:40:36;12.20;99.90
52030;DHT22;38043;53.224;6.580;2022-10-16T22:43:02;12.20;99.90
52030;DHT22;38043;53.224;6.580;2022-10-16T22:45:33;12.20;99.90
52030;DHT22;38043;53.224;6.580;2022-10-16T22:47:59;12.30;99.90
52030;DHT22;38043;53.224;6.580;2022-10-16T22:50:26;12.20;99.90
52030;DHT22;38043;53.224;6.580;2022-10-16T22:52:52;12.30;99.90
52030;DHT22;38043;53.224;6.580;2022-10-16T22:55:18;12.30;99.90
52030;DHT22;38043;53.224;6.580;2022-10-16T22:57:44;12.30;99.90
52030;DHT22;38043;53.224;6.580;2022-10-16T23:00:13;12.40;99.90
52030;DHT22;38043;53.224;6.580;2022-10-16T23:02:39;12.30;99.90
52030;DHT22;38043;53.224;6.580;2022-10-16T23:05:06;12.30;99.90
52030;DHT22;38043;53.224;6.580;2022-10-16T23:07:32;12.30;99.90
52030;DHT22;38043;53.224;6.580;2022-10-16T23:09:58;12.30;99.90
52030;DHT22;38043;53.224;6.580;2022-10-16T23:12:24;12.40;99.90
52030;DHT22;38043;53.224;6.580;2022-10-16T23:14:53;12.30;99.90
52030;DHT22;38043;53.224;6.580;2022-10-16T23:17:19;12.30;99.90
52030;DHT22;38043;53.224;6.580;2022-10-16T23:19:45;12.50;99.90
52030;DHT22;38043;53.224;6.580;2022-10-16T23:22:11;12.30;99.90
52030;DHT22;38043;53.224;6.580;2022-10-16T23:24:37;12.20;99.90
52030;DHT22;38043;53.224;6.580;2022-10-16T23:27:03;12.20;99.90
52030;DHT22;38043;53.224;6.580;2022-10-16T23:29:29;12.20;99.90
52030;DHT22;38043;53.224;6.580;2022-10-16T23:32:12;12.20;99.90
52030;DHT22;38043;53.224;6.580;2022-10-16T23:34:38;12.20;99.90
52030;DHT22;38043;53.224;6.580;2022-10-16T23:37:03;12.20;99.90
52030;DHT22;38043;53.224;6.580;2022-10-16T23:39:31;12.20;99.90
52030;DHT22;38043;53.224;6.580;2022-10-16T23:41:56;12.10;99.90
52030;DHT22;38043;53.224;6.580;2022-10-16T23:44:22;12.10;99.90
52030;DHT22;38043;53.224;6.580;2022-10-16T23:46:47;12.00;99.90
52030;DHT22;38043;53.224;6.580;2022-10-16T23:49:13;12.00;99.90
52030;DHT22;38043;53.224;6.580;2022-10-16T23:51:39;12.00;99.90
52030;DHT22;38043;53.224;6.580;2022-10-16T23:54:04;12.00;99.90
52030;DHT22;38043;53.224;6.580;2022-10-16T23:56:30;12.40;99.90
52030;DHT22;38043;53.224;6.580;2022-10-16T23:58:56;11.90;99.90
